createdAt,value
2018-09-09T00:00:38.532Z,14.13
2018-09-09T00:01:38.555Z,14.18
2018-09-09T00:02:38.568Z,14.25
2018-09-09T00:03:38.595Z,14.13
2018-09-09T00:04:38.608Z,14.19
2018-09-09T00:05:38.635Z,14.18
2018-09-09T00:06:38.647Z,14.15
2018-09-09T00:07:38.672Z,14.19
2018-09-09T00:08:38.687Z,14.11
2018-09-09T00:09:38.713Z,14.15
2018-09-09T00:10:38.728Z,14.15
2018-09-09T00:11:38.751Z,14.04
2018-09-09T00:12:38.766Z,14.03
2018-09-09T00:13:38.797Z,14.07
2018-09-09T00:14:38.805Z,14.08
2018-09-09T00:15:38.830Z,14.07
2018-09-09T00:16:38.845Z,14.08
2018-09-09T00:17:38.870Z,14.00
2018-09-09T00:18:38.887Z,14.01
2018-09-09T00:19:38.909Z,14.01
2018-09-09T00:20:38.923Z,14.05
2018-09-09T00:21:38.951Z,14.04
2018-09-09T00:22:38.962Z,14.07
2018-09-09T00:23:38.989Z,14.00
2018-09-09T00:24:39.003Z,13.94
2018-09-09T00:25:39.029Z,13.97
2018-09-09T00:26:39.040Z,13.94
2018-09-09T00:27:39.067Z,14.00
2018-09-09T00:28:39.084Z,13.95
2018-09-09T00:29:39.108Z,14.03
2018-09-09T00:30:39.120Z,13.95
2018-09-09T00:31:39.146Z,14.03
2018-09-09T00:32:39.161Z,13.95
2018-09-09T00:33:39.186Z,14.04
2018-09-09T00:34:39.199Z,13.97
2018-09-09T00:35:39.225Z,13.94
2018-09-09T00:36:39.240Z,14.04
2018-09-09T00:37:39.265Z,13.98
2018-09-09T00:38:39.279Z,14.12
2018-09-09T00:39:39.304Z,14.00
2018-09-09T00:40:39.318Z,14.07
2018-09-09T00:41:39.344Z,14.03
2018-09-09T00:42:39.356Z,14.01
2018-09-09T00:43:39.383Z,14.05
2018-09-09T00:44:39.397Z,14.03
2018-09-09T00:45:39.423Z,14.05
2018-09-09T00:46:39.439Z,14.11
2018-09-09T00:47:39.461Z,14.05
2018-09-09T00:48:39.475Z,14.11
2018-09-09T00:49:39.502Z,14.03
2018-09-09T00:50:39.514Z,14.04
2018-09-09T00:51:39.554Z,14.04
2018-09-09T00:52:39.555Z,14.04
2018-09-09T00:53:39.581Z,14.07
2018-09-09T00:54:39.595Z,14.03
2018-09-09T00:55:39.632Z,14.05
2018-09-09T00:56:39.633Z,14.03
2018-09-09T00:57:39.660Z,14.07
2018-09-09T00:58:39.673Z,14.04
2018-09-09T00:59:39.698Z,14.05
2018-09-09T01:00:39.713Z,14.03
2018-09-09T01:01:39.738Z,14.07
2018-09-09T01:02:39.765Z,14.07
2018-09-09T01:03:39.779Z,14.07
2018-09-09T01:04:39.791Z,14.04
2018-09-09T01:05:39.816Z,14.04
2018-09-09T01:06:39.829Z,14.01
2018-09-09T01:07:39.857Z,14.07
2018-09-09T01:08:39.869Z,14.03
2018-09-09T01:09:39.897Z,14.12
2018-09-09T01:10:39.922Z,14.03
2018-09-09T01:11:39.934Z,14.05
2018-09-09T01:12:39.949Z,14.05
2018-09-09T01:13:39.974Z,14.05
2018-09-09T01:14:39.986Z,14.11
2018-09-09T01:15:40.016Z,14.05
2018-09-09T01:16:40.028Z,14.12
2018-09-09T01:17:40.053Z,14.08
2018-09-09T01:18:40.066Z,14.01
2018-09-09T01:19:40.091Z,14.11
2018-09-09T01:20:40.105Z,14.05
2018-09-09T01:21:40.132Z,14.05
2018-09-09T01:22:40.148Z,14.07
2018-09-09T01:23:40.170Z,14.05
2018-09-09T01:24:40.184Z,14.08
2018-09-09T01:25:40.214Z,14.05
2018-09-09T01:26:40.223Z,14.05
2018-09-09T01:27:40.249Z,14.03
2018-09-09T01:28:40.264Z,14.11
2018-09-09T01:29:40.289Z,14.04
2018-09-09T01:30:40.303Z,14.12
2018-09-09T01:31:40.341Z,14.15
2018-09-09T01:32:40.342Z,14.12
2018-09-09T01:33:40.372Z,14.13
2018-09-09T01:34:40.381Z,14.15
2018-09-09T01:35:40.407Z,14.08
2018-09-09T01:36:40.421Z,14.12
2018-09-09T01:37:40.490Z,14.15
2018-09-09T01:38:40.462Z,14.13
2018-09-09T01:39:40.489Z,14.05
2018-09-09T01:40:40.500Z,14.12
2018-09-09T01:41:40.526Z,14.04
2018-09-09T01:42:40.540Z,14.13
2018-09-09T01:43:40.564Z,14.15
2018-09-09T01:44:40.591Z,14.12
2018-09-09T01:45:40.605Z,14.08
2018-09-09T01:46:40.631Z,14.16
2018-09-09T01:47:40.645Z,14.12
2018-09-09T01:48:40.669Z,14.07
2018-09-09T01:49:40.684Z,14.11
2018-09-09T01:50:40.697Z,14.12
2018-09-09T01:51:40.722Z,14.08
2018-09-09T01:52:40.748Z,14.18
2018-09-09T01:53:40.763Z,14.15
2018-09-09T01:54:40.788Z,14.11
2018-09-09T01:55:40.801Z,14.07
2018-09-09T01:56:40.827Z,14.11
2018-09-09T01:57:40.842Z,14.11
2018-09-09T01:58:40.855Z,14.13
2018-09-09T01:59:40.880Z,14.13
2018-09-09T02:00:40.918Z,14.15
2018-09-09T02:01:40.920Z,14.19
2018-09-09T02:02:40.946Z,14.07
2018-09-09T02:03:40.960Z,14.11
2018-09-09T02:04:40.987Z,14.05
2018-09-09T02:05:40.999Z,14.11
2018-09-09T02:06:41.025Z,14.16
2018-09-09T02:07:41.037Z,14.12
2018-09-09T02:08:41.065Z,14.07
2018-09-09T02:09:41.079Z,14.11
2018-09-09T02:10:41.104Z,14.12
2018-09-09T02:11:41.116Z,14.11
2018-09-09T02:12:41.146Z,14.20
2018-09-09T02:13:41.156Z,14.08
2018-09-09T02:14:41.184Z,14.19
2018-09-09T02:15:41.199Z,14.08
2018-09-09T02:16:41.221Z,14.07
2018-09-09T02:17:41.235Z,14.12
2018-09-09T02:18:41.261Z,14.15
2018-09-09T02:19:41.276Z,14.15
2018-09-09T02:20:41.300Z,14.13
2018-09-09T02:21:41.314Z,14.12
2018-09-09T02:22:41.340Z,14.07
2018-09-09T02:23:41.353Z,14.13
2018-09-09T02:24:41.378Z,14.11
2018-09-09T02:25:41.408Z,14.08
2018-09-09T02:26:41.419Z,14.08
2018-09-09T02:27:41.431Z,14.12
2018-09-09T02:28:41.458Z,14.04
2018-09-09T02:29:41.471Z,14.11
2018-09-09T02:30:41.498Z,14.03
2018-09-09T02:31:41.511Z,14.05
2018-09-09T02:32:41.538Z,14.03
2018-09-09T02:33:41.552Z,14.04
2018-09-09T02:34:41.577Z,14.05
2018-09-09T02:35:41.605Z,14.08
2018-09-09T02:36:41.618Z,14.04
2018-09-09T02:37:41.631Z,13.97
2018-09-09T02:38:41.656Z,13.98
2018-09-09T02:39:41.668Z,13.98
2018-09-09T02:40:41.695Z,14.05
2018-09-09T02:41:41.709Z,13.95
2018-09-09T02:42:41.734Z,14.00
2018-09-09T02:43:41.756Z,13.95
2018-09-09T02:44:41.786Z,13.97
2018-09-09T02:45:41.788Z,13.97
2018-09-09T02:46:41.814Z,14.00
2018-09-09T02:47:41.827Z,13.98
2018-09-09T02:48:41.852Z,13.97
2018-09-09T02:49:41.869Z,13.98
2018-09-09T02:50:41.893Z,13.97
2018-09-09T02:51:41.906Z,13.94
2018-09-09T02:52:41.931Z,13.94
2018-09-09T02:53:41.948Z,13.93
2018-09-09T02:54:41.971Z,14.00
2018-09-09T02:55:41.985Z,13.95
2018-09-09T02:56:42.011Z,13.91
2018-09-09T02:57:42.025Z,13.89
2018-09-09T02:58:42.049Z,13.89
2018-09-09T02:59:42.064Z,13.87
2018-09-09T03:00:42.088Z,13.89
2018-09-09T03:01:42.103Z,13.89
2018-09-09T03:02:42.129Z,13.89
2018-09-09T03:03:42.141Z,13.91
2018-09-09T03:04:42.168Z,13.83
2018-09-09T03:05:42.181Z,13.85
2018-09-09T03:06:42.221Z,13.93
2018-09-09T03:07:42.221Z,13.89
2018-09-09T03:08:42.245Z,13.83
2018-09-09T03:09:42.260Z,13.89
2018-09-09T03:10:42.285Z,13.82
2018-09-09T03:11:42.315Z,13.86
2018-09-09T03:12:42.324Z,13.83
2018-09-09T03:13:42.338Z,13.93
2018-09-09T03:14:42.366Z,13.83
2018-09-09T03:15:42.378Z,13.89
2018-09-09T03:16:42.404Z,13.89
2018-09-09T03:17:42.419Z,13.87
2018-09-09T03:18:42.433Z,13.87
2018-09-09T03:19:42.457Z,13.79
2018-09-09T03:20:42.482Z,13.82
2018-09-09T03:21:42.496Z,13.79
2018-09-09T03:22:42.511Z,13.80
2018-09-09T03:23:42.536Z,13.79
2018-09-09T03:24:42.550Z,13.78
2018-09-09T03:25:42.575Z,13.83
2018-09-09T03:26:42.591Z,13.78
2018-09-09T03:27:42.613Z,13.83
2018-09-09T03:28:42.667Z,13.86
2018-09-09T03:29:42.661Z,13.79
2018-09-09T03:30:42.667Z,13.82
2018-09-09T03:31:42.708Z,13.82
2018-09-09T03:32:42.706Z,13.80
2018-09-09T03:33:42.736Z,13.82
2018-09-09T03:34:42.748Z,13.87
2018-09-09T03:35:42.772Z,13.80
2018-09-09T03:36:42.787Z,13.79
2018-09-09T03:37:42.812Z,13.82
2018-09-09T03:38:42.825Z,13.85
2018-09-09T03:39:42.851Z,13.79
2018-09-09T03:40:42.864Z,13.82
2018-09-09T03:41:42.891Z,13.82
2018-09-09T03:42:42.904Z,13.91
2018-09-09T03:43:42.929Z,13.91
2018-09-09T03:44:42.944Z,13.80
2018-09-09T03:45:42.970Z,13.89
2018-09-09T03:46:42.996Z,13.87
2018-09-09T03:47:43.013Z,13.80
2018-09-09T03:48:43.023Z,13.80
2018-09-09T03:49:43.039Z,13.83
2018-09-09T03:50:43.061Z,13.86
2018-09-09T03:51:43.089Z,13.93
2018-09-09T03:52:43.101Z,13.78
2018-09-09T03:53:43.116Z,13.89
2018-09-09T03:54:43.144Z,13.79
2018-09-09T03:55:43.154Z,13.78
2018-09-09T03:56:43.181Z,13.85
2018-09-09T03:57:43.193Z,13.82
2018-09-09T03:58:43.220Z,13.80
2018-09-09T03:59:43.233Z,13.73
2018-09-09T04:00:43.260Z,13.76
2018-09-09T04:01:43.288Z,13.76
2018-09-09T04:02:43.298Z,13.83
2018-09-09T04:03:43.312Z,13.70
2018-09-09T04:04:43.338Z,13.78
2018-09-09T04:05:43.351Z,13.76
2018-09-09T04:06:43.377Z,13.70
2018-09-09T04:07:43.391Z,13.78
2018-09-09T04:08:43.417Z,13.71
2018-09-09T04:09:43.431Z,13.83
2018-09-09T04:10:43.457Z,13.73
2018-09-09T04:11:43.470Z,13.85
2018-09-09T04:12:43.496Z,13.68
2018-09-09T04:13:43.508Z,13.65
2018-09-09T04:14:43.536Z,13.75
2018-09-09T04:15:43.549Z,13.73
2018-09-09T04:16:43.575Z,13.67
2018-09-09T04:17:43.587Z,13.64
2018-09-09T04:18:43.612Z,13.68
2018-09-09T04:19:43.629Z,13.70
2018-09-09T04:20:43.653Z,13.76
2018-09-09T04:21:43.667Z,13.64
2018-09-09T04:22:43.681Z,13.62
2018-09-09T04:23:43.707Z,13.62
2018-09-09T04:24:43.721Z,13.67
2018-09-09T04:25:43.745Z,13.67
2018-09-09T04:26:43.759Z,13.68
2018-09-09T04:27:43.785Z,13.62
2018-09-09T04:28:43.799Z,13.76
2018-09-09T04:29:43.823Z,13.61
2018-09-09T04:30:43.849Z,13.62
2018-09-09T04:31:43.865Z,13.57
2018-09-09T04:32:43.877Z,13.60
2018-09-09T04:33:43.904Z,13.58
2018-09-09T04:34:43.917Z,13.49
2018-09-09T04:35:43.943Z,13.54
2018-09-09T04:36:43.956Z,13.60
2018-09-09T04:37:43.982Z,13.54
2018-09-09T04:38:44.044Z,13.54
2018-09-09T04:39:44.022Z,13.47
2018-09-09T04:40:44.036Z,13.43
2018-09-09T04:41:44.062Z,13.43
2018-09-09T04:42:44.079Z,13.43
2018-09-09T04:43:44.089Z,13.42
2018-09-09T04:44:44.115Z,13.37
2018-09-09T04:45:44.136Z,13.43
2018-09-09T04:46:44.154Z,13.40
2018-09-09T04:47:44.167Z,13.43
2018-09-09T04:48:44.193Z,13.40
2018-09-09T04:49:44.207Z,13.39
2018-09-09T04:50:44.233Z,13.39
2018-09-09T04:51:44.246Z,13.37
2018-09-09T04:52:44.271Z,13.37
2018-09-09T04:53:44.286Z,13.47
2018-09-09T04:54:44.311Z,13.42
2018-09-09T04:55:44.325Z,13.42
2018-09-09T04:56:44.350Z,13.39
2018-09-09T04:57:44.367Z,13.43
2018-09-09T04:58:44.390Z,13.43
2018-09-09T04:59:44.403Z,13.42
2018-09-09T05:00:44.430Z,13.45
2018-09-09T05:01:44.444Z,13.45
2018-09-09T05:02:44.457Z,13.46
2018-09-09T05:03:44.485Z,13.47
2018-09-09T05:04:44.495Z,13.40
2018-09-09T05:05:44.523Z,13.46
2018-09-09T05:06:44.538Z,13.49
2018-09-09T05:07:44.562Z,13.49
2018-09-09T05:08:44.575Z,13.43
2018-09-09T05:09:44.600Z,13.52
2018-09-09T05:10:44.614Z,13.49
2018-09-09T05:11:44.639Z,13.49
2018-09-09T05:12:44.656Z,13.58
2018-09-09T05:13:44.679Z,13.58
2018-09-09T05:14:44.693Z,13.58
2018-09-09T05:15:44.719Z,13.57
2018-09-09T05:16:44.732Z,13.50
2018-09-09T05:17:44.759Z,13.57
2018-09-09T05:18:44.771Z,13.54
2018-09-09T05:19:44.810Z,13.67
2018-09-09T05:20:44.812Z,13.65
2018-09-09T05:21:44.841Z,13.70
2018-09-09T05:22:44.850Z,13.65
2018-09-09T05:23:44.876Z,13.70
2018-09-09T05:24:44.890Z,13.68
2018-09-09T05:25:44.916Z,13.83
2018-09-09T05:26:44.929Z,13.80
2018-09-09T05:27:44.960Z,13.82
2018-09-09T05:28:44.969Z,13.78
2018-09-09T05:29:44.995Z,13.80
2018-09-09T05:30:45.008Z,13.80
2018-09-09T05:31:45.034Z,13.87
2018-09-09T05:32:45.048Z,13.89
2018-09-09T05:33:45.062Z,13.86
2018-09-09T05:34:45.086Z,13.91
2018-09-09T05:35:45.112Z,13.93
2018-09-09T05:36:45.128Z,13.87
2018-09-09T05:37:45.152Z,13.91
2018-09-09T05:38:45.166Z,14.00
2018-09-09T05:39:45.204Z,14.01
2018-09-09T05:40:45.205Z,14.01
2018-09-09T05:41:45.233Z,14.07
2018-09-09T05:42:45.243Z,14.15
2018-09-09T05:43:45.270Z,14.19
2018-09-09T05:44:45.339Z,14.25
2018-09-09T05:45:45.310Z,14.16
2018-09-09T05:46:45.322Z,14.11
2018-09-09T05:47:45.349Z,14.22
2018-09-09T05:48:45.363Z,14.28
2018-09-09T05:49:45.389Z,14.25
2018-09-09T05:50:45.401Z,14.30
2018-09-09T05:51:45.428Z,14.43
2018-09-09T05:52:45.442Z,14.43
2018-09-09T05:53:45.519Z,14.48
2018-09-09T05:54:45.493Z,14.55
2018-09-09T05:55:45.507Z,14.55
2018-09-09T05:56:45.532Z,14.53
2018-09-09T05:57:45.554Z,14.55
2018-09-09T05:58:45.572Z,14.62
2018-09-09T05:59:45.585Z,14.66
2018-09-09T06:00:45.612Z,14.68
2018-09-09T06:01:45.626Z,14.66
2018-09-09T06:02:45.652Z,14.81
2018-09-09T06:03:45.664Z,14.74
2018-09-09T06:04:45.690Z,14.87
2018-09-09T06:05:45.704Z,14.90
2018-09-09T06:06:45.730Z,14.93
2018-09-09T06:07:45.756Z,15.00
2018-09-09T06:08:45.782Z,15.05
2018-09-09T06:09:45.795Z,15.05
2018-09-09T06:10:45.812Z,15.15
2018-09-09T06:11:45.835Z,15.12
2018-09-09T06:12:45.848Z,15.14
2018-09-09T06:13:45.874Z,15.14
2018-09-09T06:14:45.889Z,15.26
2018-09-09T06:15:45.914Z,15.25
2018-09-09T06:16:45.939Z,15.35
2018-09-09T06:17:45.954Z,15.33
2018-09-09T06:18:45.978Z,15.37
2018-09-09T06:19:45.993Z,15.41
2018-09-09T06:20:46.019Z,15.51
2018-09-09T06:21:46.045Z,15.54
2018-09-09T06:22:46.071Z,15.59
2018-09-09T06:23:46.083Z,15.65
2018-09-09T06:24:46.110Z,15.75
2018-09-09T06:25:46.123Z,15.76
2018-09-09T06:26:46.150Z,15.83
2018-09-09T06:27:46.163Z,15.87
2018-09-09T06:28:46.189Z,15.98
2018-09-09T06:29:46.203Z,16.02
2018-09-09T06:30:46.230Z,16.06
2018-09-09T06:31:46.255Z,16.17
2018-09-09T06:32:46.268Z,16.17
2018-09-09T06:33:46.297Z,16.29
2018-09-09T06:34:46.319Z,16.32
2018-09-09T06:35:46.333Z,16.32
2018-09-09T06:36:46.360Z,16.37
2018-09-09T06:37:46.372Z,16.39
2018-09-09T06:38:46.398Z,16.51
2018-09-09T06:39:46.424Z,16.49
2018-09-09T06:40:46.438Z,16.61
2018-09-09T06:41:46.464Z,16.61
2018-09-09T06:42:46.546Z,16.66
2018-09-09T06:43:46.503Z,16.76
2018-09-09T06:44:46.529Z,16.82
2018-09-09T06:45:46.554Z,16.89
2018-09-09T06:46:46.569Z,16.89
2018-09-09T06:47:46.599Z,16.94
2018-09-09T06:48:46.620Z,16.99
2018-09-09T06:49:46.649Z,16.94
2018-09-09T06:50:46.659Z,16.99
2018-09-09T06:51:46.693Z,17.04
2018-09-09T06:52:46.712Z,17.16
2018-09-09T06:53:46.725Z,17.22
2018-09-09T06:54:46.752Z,17.30
2018-09-09T06:55:46.779Z,17.35
2018-09-09T06:56:46.790Z,17.39
2018-09-09T06:57:46.816Z,17.41
2018-09-09T06:58:46.843Z,17.57
2018-09-09T06:59:46.857Z,17.59
2018-09-09T07:00:46.882Z,17.49
2018-09-09T07:01:46.908Z,17.54
2018-09-09T07:02:46.924Z,17.65
2018-09-09T07:03:46.947Z,17.57
2018-09-09T07:04:46.972Z,17.59
2018-09-09T07:05:47.000Z,17.80
2018-09-09T07:06:47.012Z,17.87
2018-09-09T07:07:47.038Z,17.86
2018-09-09T07:08:47.065Z,17.93
2018-09-09T07:09:47.081Z,17.95
2018-09-09T07:10:47.140Z,17.95
2018-09-09T07:11:47.272Z,18.05
2018-09-09T07:12:47.170Z,18.03
2018-09-09T07:13:47.170Z,18.16
2018-09-09T07:14:47.199Z,18.16
2018-09-09T07:15:47.221Z,18.15
2018-09-09T07:16:47.247Z,18.37
2018-09-09T07:17:47.261Z,18.33
2018-09-09T07:18:47.286Z,18.39
2018-09-09T07:19:47.314Z,18.43
2018-09-09T07:20:47.338Z,18.49
2018-09-09T07:21:47.354Z,18.60
2018-09-09T07:22:47.442Z,18.70
2018-09-09T07:23:47.405Z,18.70
2018-09-09T07:24:47.430Z,18.78
2018-09-09T07:25:47.456Z,18.85
2018-09-09T07:26:47.471Z,18.92
2018-09-09T07:27:47.495Z,19.09
2018-09-09T07:28:47.536Z,19.11
2018-09-09T07:29:47.547Z,19.26
2018-09-09T07:30:47.561Z,19.35
2018-09-09T07:31:47.587Z,19.37
2018-09-09T07:32:47.616Z,19.44
2018-09-09T07:33:47.641Z,19.60
2018-09-09T07:34:47.665Z,19.59
2018-09-09T07:35:47.691Z,19.72
2018-09-09T07:36:47.704Z,19.78
2018-09-09T07:37:47.730Z,19.87
2018-09-09T07:38:47.757Z,19.96
2018-09-09T07:39:47.781Z,20.11
2018-09-09T07:40:47.808Z,20.12
2018-09-09T07:41:47.835Z,20.24
2018-09-09T07:42:47.848Z,20.32
2018-09-09T07:43:47.874Z,20.33
2018-09-09T07:44:47.901Z,20.48
2018-09-09T07:45:47.926Z,20.55
2018-09-09T07:46:47.952Z,20.68
2018-09-09T07:47:47.981Z,20.64
2018-09-09T07:48:48.004Z,20.73
2018-09-09T07:49:48.019Z,20.68
2018-09-09T07:50:48.096Z,20.74
2018-09-09T07:51:48.068Z,20.80
2018-09-09T07:52:48.096Z,20.78
2018-09-09T07:53:48.122Z,20.78
2018-09-09T07:54:48.147Z,20.77
2018-09-09T07:55:48.172Z,20.83
2018-09-09T07:56:48.202Z,20.88
2018-09-09T07:57:48.225Z,20.90
2018-09-09T07:58:48.239Z,20.96
2018-09-09T07:59:48.265Z,20.93
2018-09-09T08:00:48.291Z,20.95
2018-09-09T08:01:48.321Z,21.00
2018-09-09T08:02:48.343Z,20.93
2018-09-09T08:03:48.371Z,20.92
2018-09-09T08:04:48.395Z,20.98
2018-09-09T08:05:48.421Z,21.04
2018-09-09T08:06:48.447Z,21.05
2018-09-09T08:07:48.471Z,21.11
2018-09-09T08:08:48.497Z,21.22
2018-09-09T08:09:48.523Z,21.22
2018-09-09T08:10:48.537Z,21.26
2018-09-09T08:11:48.562Z,21.19
2018-09-09T08:12:48.590Z,21.19
2018-09-09T08:13:48.616Z,21.25
2018-09-09T08:14:48.642Z,21.32
2018-09-09T08:15:48.680Z,21.30
2018-09-09T08:16:48.693Z,21.29
2018-09-09T08:17:48.724Z,21.29
2018-09-09T08:18:48.748Z,21.30
2018-09-09T08:19:48.783Z,21.26
2018-09-09T08:20:48.784Z,21.29
2018-09-09T08:21:48.811Z,21.29
2018-09-09T08:22:48.836Z,21.28
2018-09-09T08:23:48.862Z,21.33
2018-09-09T08:24:48.888Z,21.29
2018-09-09T08:25:48.914Z,21.32
2018-09-09T08:26:48.940Z,21.29
2018-09-09T08:27:48.966Z,21.28
2018-09-09T08:28:48.981Z,21.40
2018-09-09T08:29:49.007Z,21.30
2018-09-09T08:30:49.044Z,21.41
2018-09-09T08:31:49.070Z,21.41
2018-09-09T08:32:49.083Z,21.38
2018-09-09T08:33:49.108Z,21.43
2018-09-09T08:34:49.196Z,21.35
2018-09-09T08:35:49.160Z,21.38
2018-09-09T08:36:49.175Z,21.33
2018-09-09T08:37:49.201Z,21.41
2018-09-09T08:38:49.226Z,21.47
2018-09-09T08:39:49.253Z,21.47
2018-09-09T08:40:49.278Z,21.45
2018-09-09T08:41:49.304Z,21.53
2018-09-09T08:42:49.330Z,21.48
2018-09-09T08:43:49.343Z,21.47
2018-09-09T08:44:49.369Z,21.53
2018-09-09T08:45:49.395Z,21.56
2018-09-09T08:46:49.422Z,21.50
2018-09-09T08:47:49.448Z,21.50
2018-09-09T08:48:49.473Z,21.59
2018-09-09T08:49:49.499Z,21.62
2018-09-09T08:50:49.515Z,21.62
2018-09-09T08:51:49.623Z,21.62
2018-09-09T08:52:49.567Z,21.63
2018-09-09T08:53:49.594Z,21.66
2018-09-09T08:54:49.617Z,21.72
2018-09-09T08:55:49.643Z,21.62
2018-09-09T08:56:49.669Z,21.63
2018-09-09T08:57:49.696Z,21.65
2018-09-09T08:58:49.708Z,21.66
2018-09-09T08:59:49.747Z,21.68
2018-09-09T09:00:49.762Z,21.75
2018-09-09T09:01:49.787Z,21.75
2018-09-09T09:02:49.811Z,21.77
2018-09-09T09:03:49.837Z,21.81
2018-09-09T09:04:49.853Z,21.77
2018-09-09T09:05:49.878Z,21.88
2018-09-09T09:06:49.904Z,21.74
2018-09-09T09:07:49.985Z,21.74
2018-09-09T09:08:49.955Z,21.83
2018-09-09T09:09:49.981Z,21.88
2018-09-09T09:10:49.994Z,21.89
2018-09-09T09:11:50.028Z,21.94
2018-09-09T09:12:50.046Z,21.94
2018-09-09T09:13:50.072Z,21.91
2018-09-09T09:14:50.171Z,22.01
2018-09-09T09:15:50.125Z,21.94
2018-09-09T09:16:50.150Z,22.03
2018-09-09T09:17:50.164Z,21.99
2018-09-09T09:18:50.190Z,21.91
2018-09-09T09:19:50.217Z,22.03
2018-09-09T09:20:50.241Z,22.00
2018-09-09T09:21:50.268Z,22.00
2018-09-09T09:22:50.294Z,22.01
2018-09-09T09:23:50.308Z,22.04
2018-09-09T09:24:50.332Z,22.07
2018-09-09T09:25:50.358Z,22.14
2018-09-09T09:26:50.384Z,22.07
2018-09-09T09:27:50.410Z,22.08
2018-09-09T09:28:50.449Z,22.07
2018-09-09T09:29:50.452Z,22.06
2018-09-09T09:30:50.548Z,22.06
2018-09-09T09:31:50.502Z,22.15
2018-09-09T09:32:50.528Z,22.07
2018-09-09T09:33:50.554Z,22.06
2018-09-09T09:34:50.579Z,22.10
2018-09-09T09:35:50.606Z,22.19
2018-09-09T09:36:50.619Z,22.08
2018-09-09T09:37:50.645Z,22.16
2018-09-09T09:38:50.671Z,22.14
2018-09-09T09:39:50.697Z,22.18
2018-09-09T09:40:50.723Z,22.25
2018-09-09T09:41:50.749Z,22.23
2018-09-09T09:42:50.764Z,22.23
2018-09-09T09:43:50.791Z,22.28
2018-09-09T09:44:50.854Z,22.38
2018-09-09T09:45:50.841Z,22.36
2018-09-09T09:46:50.866Z,22.40
2018-09-09T09:47:50.892Z,22.37
2018-09-09T09:48:50.919Z,22.41
2018-09-09T09:49:50.944Z,22.44
2018-09-09T09:50:50.957Z,22.37
2018-09-09T09:51:50.986Z,22.49
2018-09-09T09:52:51.023Z,22.56
2018-09-09T09:53:51.037Z,22.58
2018-09-09T09:54:51.061Z,22.58
2018-09-09T09:55:51.088Z,22.61
2018-09-09T09:56:51.104Z,22.67
2018-09-09T09:57:51.130Z,22.67
2018-09-09T09:58:51.153Z,22.70
2018-09-09T09:59:51.179Z,22.70
2018-09-09T10:00:51.205Z,22.67
2018-09-09T10:01:51.231Z,22.76
2018-09-09T10:02:51.257Z,22.77
2018-09-09T10:03:51.271Z,22.76
2018-09-09T10:04:51.297Z,22.78
2018-09-09T10:05:51.334Z,22.74
2018-09-09T10:06:51.351Z,22.93
2018-09-09T10:07:51.373Z,22.89
2018-09-09T10:08:51.399Z,22.93
2018-09-09T10:09:51.426Z,22.84
2018-09-09T10:10:51.452Z,22.93
2018-09-09T10:11:51.467Z,22.96
2018-09-09T10:12:51.492Z,23.11
2018-09-09T10:13:51.519Z,23.01
2018-09-09T10:14:51.544Z,22.99
2018-09-09T10:15:51.569Z,23.07
2018-09-09T10:16:51.598Z,23.04
2018-09-09T10:17:51.622Z,23.11
2018-09-09T10:18:51.648Z,23.16
2018-09-09T10:19:51.674Z,23.21
2018-09-09T10:20:51.687Z,23.23
2018-09-09T10:21:51.713Z,23.26
2018-09-09T10:22:51.738Z,23.28
2018-09-09T10:23:51.786Z,23.28
2018-09-09T10:24:51.790Z,23.34
2018-09-09T10:25:51.821Z,23.37
2018-09-09T10:26:51.842Z,23.34
2018-09-09T10:27:51.870Z,23.40
2018-09-09T10:28:51.894Z,23.48
2018-09-09T10:29:51.909Z,23.54
2018-09-09T10:30:51.935Z,23.52
2018-09-09T10:31:51.961Z,23.59
2018-09-09T10:32:51.987Z,23.66
2018-09-09T10:33:52.012Z,23.59
2018-09-09T10:34:52.038Z,23.69
2018-09-09T10:35:52.064Z,23.73
2018-09-09T10:36:52.090Z,23.81
2018-09-09T10:37:52.116Z,23.82
2018-09-09T10:38:52.142Z,23.82
2018-09-09T10:39:52.168Z,23.77
2018-09-09T10:40:52.208Z,23.84
2018-09-09T10:41:52.220Z,23.88
2018-09-09T10:42:52.245Z,24.01
2018-09-09T10:43:52.272Z,23.96
2018-09-09T10:44:52.298Z,24.03
2018-09-09T10:45:52.323Z,24.09
2018-09-09T10:46:52.450Z,24.21
2018-09-09T10:47:52.375Z,24.36
2018-09-09T10:48:52.401Z,24.56
2018-09-09T10:49:52.428Z,24.74
2018-09-09T10:50:52.453Z,24.97
2018-09-09T10:51:52.490Z,25.03
2018-09-09T10:52:52.516Z,25.25
2018-09-09T10:53:52.556Z,25.49
2018-09-09T10:54:52.569Z,25.56
2018-09-09T10:55:52.596Z,25.73
2018-09-09T10:56:52.634Z,25.76
2018-09-09T10:57:52.660Z,25.88
2018-09-09T10:58:52.723Z,25.86
2018-09-09T10:59:52.725Z,25.95
2018-09-09T11:00:52.751Z,25.96
2018-09-09T11:01:52.791Z,26.08
2018-09-09T11:02:52.815Z,26.10
2018-09-09T11:03:52.841Z,26.08
2018-09-09T11:04:52.879Z,26.07
2018-09-09T11:05:52.904Z,26.08
2018-09-09T11:06:52.952Z,26.16
2018-09-09T11:07:52.974Z,26.13
2018-09-09T11:08:52.995Z,26.15
2018-09-09T11:09:53.047Z,26.10
2018-09-09T11:10:53.059Z,25.95
2018-09-09T11:11:53.089Z,25.99
2018-09-09T11:12:53.176Z,25.92
2018-09-09T11:13:53.150Z,25.88
2018-09-09T11:14:53.177Z,25.85
2018-09-09T11:15:53.202Z,25.89
2018-09-09T11:16:53.239Z,25.91
2018-09-09T11:17:53.271Z,25.83
2018-09-09T11:18:53.295Z,25.81
2018-09-09T11:19:53.319Z,25.88
2018-09-09T11:20:53.344Z,25.88
2018-09-09T11:21:53.371Z,25.83
2018-09-09T11:22:53.409Z,25.85
2018-09-09T11:23:53.434Z,25.81
2018-09-09T11:24:53.461Z,25.80
2018-09-09T11:25:53.487Z,25.77
2018-09-09T11:26:53.512Z,25.85
2018-09-09T11:27:53.539Z,25.89
2018-09-09T11:28:53.577Z,25.81
2018-09-09T11:29:53.661Z,25.83
2018-09-09T11:30:53.630Z,25.89
2018-09-09T11:31:53.656Z,25.80
2018-09-09T11:32:53.680Z,25.83
2018-09-09T11:33:53.706Z,25.89
2018-09-09T11:34:53.732Z,25.86
2018-09-09T11:35:53.760Z,25.91
2018-09-09T11:36:53.797Z,25.86
2018-09-09T11:37:53.823Z,25.88
2018-09-09T11:38:53.849Z,25.99
2018-09-09T11:39:53.875Z,26.11
2018-09-09T11:40:53.901Z,26.24
2018-09-09T11:41:53.929Z,26.34
2018-09-09T11:42:53.964Z,26.51
2018-09-09T11:43:53.990Z,26.49
2018-09-09T11:44:54.018Z,26.56
2018-09-09T11:45:54.056Z,26.70
2018-09-09T11:46:54.081Z,26.66
2018-09-09T11:47:54.120Z,26.73
2018-09-09T11:48:54.146Z,26.67
2018-09-09T11:49:54.185Z,26.71
2018-09-09T11:50:54.211Z,26.67
2018-09-09T11:51:54.248Z,26.67
2018-09-09T11:52:54.275Z,26.68
2018-09-09T11:53:54.301Z,26.70
2018-09-09T11:54:54.340Z,26.70
2018-09-09T11:55:54.366Z,26.66
2018-09-09T11:56:54.403Z,26.61
2018-09-09T11:57:54.442Z,26.63
2018-09-09T11:58:54.456Z,26.64
2018-09-09T11:59:54.494Z,26.68
2018-09-09T12:00:54.520Z,26.64
2018-09-09T12:01:54.600Z,26.70
2018-09-09T12:02:54.572Z,26.63
2018-09-09T12:03:54.609Z,26.61
2018-09-09T12:04:54.636Z,26.56
2018-09-09T12:05:54.661Z,26.49
2018-09-09T12:06:54.688Z,26.51
2018-09-09T12:07:54.727Z,26.42
2018-09-09T12:08:54.753Z,26.41
2018-09-09T12:09:54.778Z,26.29
2018-09-09T12:10:54.804Z,26.30
2018-09-09T12:11:54.831Z,26.26
2018-09-09T12:12:54.868Z,26.30
2018-09-09T12:13:54.895Z,26.26
2018-09-09T12:14:54.921Z,26.22
2018-09-09T12:15:54.945Z,26.16
2018-09-09T12:16:54.971Z,26.23
2018-09-09T12:17:54.997Z,26.23
2018-09-09T12:18:55.024Z,26.13
2018-09-09T12:19:55.065Z,26.10
2018-09-09T12:20:55.088Z,26.10
2018-09-09T12:21:55.117Z,26.03
2018-09-09T12:22:55.140Z,25.96
2018-09-09T12:23:55.166Z,25.95
2018-09-09T12:24:55.193Z,25.91
2018-09-09T12:25:55.219Z,25.95
2018-09-09T12:26:55.244Z,25.83
2018-09-09T12:27:55.283Z,25.85
2018-09-09T12:28:55.309Z,25.91
2018-09-09T12:29:55.336Z,25.80
2018-09-09T12:30:55.360Z,25.74
2018-09-09T12:31:55.385Z,25.67
2018-09-09T12:32:55.411Z,25.78
2018-09-09T12:33:55.438Z,25.67
2018-09-09T12:34:55.477Z,25.74
2018-09-09T12:35:55.490Z,25.68
2018-09-09T12:36:55.516Z,25.68
2018-09-09T12:37:55.545Z,25.66
2018-09-09T12:38:55.568Z,25.66
2018-09-09T12:39:55.593Z,25.62
2018-09-09T12:40:55.620Z,25.63
2018-09-09T12:41:55.645Z,25.62
2018-09-09T12:42:55.671Z,25.59
2018-09-09T12:43:55.698Z,25.59
2018-09-09T12:44:55.725Z,25.62
2018-09-09T12:45:55.750Z,25.39
2018-09-09T12:46:55.777Z,25.37
2018-09-09T12:47:55.815Z,25.40
2018-09-09T12:48:55.842Z,25.36
2018-09-09T12:49:55.867Z,25.46
2018-09-09T12:50:55.894Z,25.39
2018-09-09T12:51:55.922Z,25.33
2018-09-09T12:52:55.946Z,25.37